Time;durP1;ratioP1;P1;durP2;ratioP2;P2;SDS_P1;SDS_P2;PMS_P1;PMS_P2;Temp;Humidity;BMP_temperature;BMP_pressure;BME280_temperature;BME280_humidity;BME280_pressure;Samples;Min_cycle;Max_cycle;Signal;HPM_P1;HPM_P2
2022/04/11 00:00:38;;;;;;;5.70;2.45;;;;;;;;;;5113048;28;20035;-71
2022/04/11 00:03:04;;;;;;;5.68;2.53;;;;;;;;;;5114893;28;20111;-71
2022/04/11 00:05:30;;;;;;;11.05;3.00;;;;;;;;;;5115319;28;20084;-72
2022/04/11 00:07:56;;;;;;;8.65;2.80;;;;;;;;;;5105765;28;20127;-74
2022/04/11 00:10:22;;;;;;;7.75;2.63;;;;;;;;;;5115221;28;20118;-71
2022/04/11 00:12:48;;;;;;;7.22;2.78;;;;;;;;;;5114913;28;20052;-71
2022/04/11 00:15:14;;;;;;;6.55;2.85;;;;;;;;;;5114596;28;20083;-69
2022/04/11 00:17:40;;;;;;;7.35;2.65;;;;;;;;;;5112643;28;20116;-70
2022/04/11 00:20:06;;;;;;;7.10;2.70;;;;;;;;;;5108816;28;20574;-70
2022/04/11 00:22:35;;;;;;;7.68;2.50;;;;;;;;;;5104180;28;20088;-71
2022/04/11 00:25:01;;;;;;;5.03;2.53;;;;;;;;;;5114508;28;20122;-71
2022/04/11 00:27:27;;;;;;;8.50;2.63;;;;;;;;;;5113376;28;20040;-71
2022/04/11 00:29:53;;;;;;;7.05;2.53;;;;;;;;;;5111021;28;20423;-71
2022/04/11 00:32:19;;;;;;;9.02;2.72;;;;;;;;;;5113967;28;20043;-70
2022/04/11 00:34:45;;;;;;;7.60;2.63;;;;;;;;;;5114137;28;20040;-72
2022/04/11 00:37:11;;;;;;;5.97;2.47;;;;;;;;;;5114138;28;20096;-71
2022/04/11 00:39:37;;;;;;;7.68;2.58;;;;;;;;;;5114076;28;20472;-72
2022/04/11 00:42:15;;;;;;;6.47;2.38;;;;;;;;;;5112989;28;20038;-71
2022/04/11 00:44:41;;;;;;;6.72;2.45;;;;;;;;;;5094614;28;20097;-71
2022/04/11 00:47:07;;;;;;;5.93;2.15;;;;;;;;;;5096190;28;20111;-71
2022/04/11 00:49:33;;;;;;;6.95;2.35;;;;;;;;;;5112233;28;20035;-71
2022/04/11 00:51:59;;;;;;;6.03;2.65;;;;;;;;;;5107589;28;20094;-70
2022/04/11 00:54:27;;;;;;;8.57;2.83;;;;;;;;;;5105359;28;20035;-70
2022/04/11 00:56:54;;;;;;;8.00;2.60;;;;;;;;;;5109285;28;20050;-73
2022/04/11 00:59:20;;;;;;;8.77;2.40;;;;;;;;;;5111087;28;20398;-72
2022/04/11 01:01:46;;;;;;;8.10;2.67;;;;;;;;;;5112425;28;20043;-71
2022/04/11 01:04:23;;;;;;;5.78;2.40;;;;;;;;;;5109959;28;20046;-70
2022/04/11 01:06:52;;;;;;;8.50;2.60;;;;;;;;;;5112615;28;20043;-70
2022/04/11 01:09:18;;;;;;;8.23;2.70;;;;;;;;;;5113073;28;20040;-71
2022/04/11 01:11:44;;;;;;;9.63;2.85;;;;;;;;;;5109145;28;20072;-70
2022/04/11 01:14:10;;;;;;;7.40;2.55;;;;;;;;;;5099656;28;20123;-71
2022/04/11 01:16:36;;;;;;;7.97;2.92;;;;;;;;;;5112542;28;20126;-70
2022/04/11 01:19:03;;;;;;;6.63;2.38;;;;;;;;;;5113013;28;20050;-71
2022/04/11 01:21:31;;;;;;;5.95;2.45;;;;;;;;;;5088834;28;20399;-71
2022/04/11 01:23:57;;;;;;;7.40;2.40;;;;;;;;;;5111048;28;20108;-70
2022/04/11 01:26:23;;;;;;;6.55;2.15;;;;;;;;;;5113675;28;20068;-69
2022/04/11 01:28:49;;;;;;;5.35;2.15;;;;;;;;;;5107518;28;20062;-70
2022/04/11 01:31:16;;;;;;;6.90;2.38;;;;;;;;;;5112830;28;20414;-71
2022/04/11 01:33:42;;;;;;;6.95;2.50;;;;;;;;;;5112961;28;20440;-69
2022/04/11 01:36:08;;;;;;;7.90;3.08;;;;;;;;;;5097086;28;20092;-69
2022/04/11 01:38:34;;;;;;;7.57;2.88;;;;;;;;;;5113969;28;20062;-71
2022/04/11 01:41:00;;;;;;;7.95;2.78;;;;;;;;;;5112036;28;20040;-71
2022/04/11 01:43:26;;;;;;;7.38;2.60;;;;;;;;;;5113350;28;20047;-70
2022/04/11 01:45:52;;;;;;;7.50;2.75;;;;;;;;;;5113926;28;20043;-71
2022/04/11 01:48:19;;;;;;;8.70;2.88;;;;;;;;;;5113386;28;20415;-71
2022/04/11 01:50:45;;;;;;;9.75;2.80;;;;;;;;;;5100091;28;20040;-71
2022/04/11 01:53:12;;;;;;;7.53;2.65;;;;;;;;;;5113955;28;20046;-71
2022/04/11 01:55:38;;;;;;;7.22;2.97;;;;;;;;;;5099415;28;20044;-71
2022/04/11 01:58:05;;;;;;;7.30;2.95;;;;;;;;;;5113825;28;20065;-71
2022/04/11 02:00:31;;;;;;;9.15;3.35;;;;;;;;;;5112520;28;20038;-70
2022/04/11 02:02:59;;;;;;;7.25;3.20;;;;;;;;;;5113789;28;20035;-71
2022/04/11 02:05:25;;;;;;;8.73;3.22;;;;;;;;;;5113886;28;20058;-70
2022/04/11 02:07:51;;;;;;;8.27;3.13;;;;;;;;;;5113718;28;20040;-69
2022/04/11 02:10:17;;;;;;;9.82;3.42;;;;;;;;;;5113114;28;20115;-72
2022/04/11 02:12:43;;;;;;;10.10;3.50;;;;;;;;;;5113524;28;20048;-70
2022/04/11 02:15:09;;;;;;;8.18;3.63;;;;;;;;;;5093760;28;20067;-69
2022/04/11 02:17:35;;;;;;;9.48;3.78;;;;;;;;;;5113386;28;20043;-70
2022/04/11 02:20:01;;;;;;;9.15;3.60;;;;;;;;;;5115163;28;20160;-70
2022/04/11 02:22:27;;;;;;;10.48;3.75;;;;;;;;;;5114930;28;20047;-69
2022/04/11 02:24:53;;;;;;;9.25;4.28;;;;;;;;;;5114064;28;20051;-71
2022/04/11 02:27:19;;;;;;;11.07;4.13;;;;;;;;;;5113249;28;20414;-71
2022/04/11 02:29:45;;;;;;;9.57;4.38;;;;;;;;;;5110801;28;20068;-70
2022/04/11 02:32:11;;;;;;;9.13;4.68;;;;;;;;;;5114641;28;20040;-70
2022/04/11 02:34:37;;;;;;;10.98;4.53;;;;;;;;;;5115950;28;20130;-71
2022/04/11 02:37:03;;;;;;;7.40;4.18;;;;;;;;;;5103340;28;20047;-71
2022/04/11 02:39:29;;;;;;;9.13;4.82;;;;;;;;;;5117317;28;20063;-71
2022/04/11 02:41:55;;;;;;;9.35;4.70;;;;;;;;;;5110119;28;20586;-71
2022/04/11 02:44:21;;;;;;;9.02;3.88;;;;;;;;;;5109189;28;20067;-71
2022/04/11 02:46:47;;;;;;;8.73;4.38;;;;;;;;;;5115882;28;20440;-71
2022/04/11 02:49:13;;;;;;;8.07;4.00;;;;;;;;;;5116118;28;20050;-72
2022/04/11 02:51:39;;;;;;;8.48;4.00;;;;;;;;;;5116615;28;20031;-69
2022/04/11 02:54:08;;;;;;;12.13;4.85;;;;;;;;;;5117163;28;20036;-70
2022/04/11 02:56:35;;;;;;;8.40;4.60;;;;;;;;;;5117130;28;20040;-70
2022/04/11 02:59:01;;;;;;;10.90;4.53;;;;;;;;;;5115611;28;20393;-70
2022/04/11 03:01:27;;;;;;;7.53;4.50;;;;;;;;;;5116799;28;20118;-72
2022/04/11 03:03:53;;;;;;;10.02;4.47;;;;;;;;;;5116800;28;20082;-72
2022/04/11 03:06:19;;;;;;;12.27;4.60;;;;;;;;;;5116826;28;20040;-70
2022/04/11 03:08:44;;;;;;;8.55;4.40;;;;;;;;;;5116380;28;20550;-70
2022/04/11 03:11:10;;;;;;;9.05;4.25;;;;;;;;;;5098688;28;20043;-70
2022/04/11 03:13:36;;;;;;;12.82;5.30;;;;;;;;;;5116306;28;20058;-71
2022/04/11 03:16:03;;;;;;;8.43;4.60;;;;;;;;;;5116601;28;20052;-71
2022/04/11 03:18:29;;;;;;;8.52;4.43;;;;;;;;;;5098262;28;20110;-71
2022/04/11 03:20:54;;;;;;;8.27;4.78;;;;;;;;;;5112869;28;20120;-72
2022/04/11 03:23:20;;;;;;;10.50;4.90;;;;;;;;;;5114250;28;20563;-71
2022/04/11 03:25:46;;;;;;;9.93;5.03;;;;;;;;;;5112651;28;20039;-70
2022/04/11 03:28:12;;;;;;;10.57;4.80;;;;;;;;;;5113938;28;20096;-71
2022/04/11 03:30:38;;;;;;;9.07;5.10;;;;;;;;;;5093260;28;20044;-71
2022/04/11 03:33:04;;;;;;;7.85;4.72;;;;;;;;;;5115240;28;20063;-71
2022/04/11 03:35:30;;;;;;;11.18;5.43;;;;;;;;;;5113327;28;20067;-72
2022/04/11 03:37:56;;;;;;;11.15;5.38;;;;;;;;;;5115487;28;20122;-71
2022/04/11 03:40:22;;;;;;;12.50;5.40;;;;;;;;;;5104566;28;20078;-71
2022/04/11 03:42:48;;;;;;;11.52;5.20;;;;;;;;;;5100639;28;20043;-71
2022/04/11 03:45:14;;;;;;;11.35;5.38;;;;;;;;;;5114562;28;20043;-70
2022/04/11 03:47:40;;;;;;;10.48;5.20;;;;;;;;;;5114826;28;20050;-72
2022/04/11 03:50:07;;;;;;;11.80;5.03;;;;;;;;;;5114876;28;20047;-70
2022/04/11 03:52:33;;;;;;;10.48;5.03;;;;;;;;;;5092749;28;20040;-71
2022/04/11 03:54:59;;;;;;;11.27;5.07;;;;;;;;;;5092204;28;20048;-71
2022/04/11 03:57:25;;;;;;;11.10;5.20;;;;;;;;;;5077890;28;20042;-71
2022/04/11 03:59:51;;;;;;;9.50;5.15;;;;;;;;;;5114362;28;20071;-71
2022/04/11 04:02:17;;;;;;;8.82;5.15;;;;;;;;;;5111212;28;20092;-70
2022/04/11 04:04:43;;;;;;;10.13;5.30;;;;;;;;;;5114545;28;20054;-71
2022/04/11 04:07:09;;;;;;;9.43;4.97;;;;;;;;;;5114632;28;20051;-71
2022/04/11 04:09:35;;;;;;;13.57;5.35;;;;;;;;;;5115353;28;20051;-71
2022/04/11 04:12:01;;;;;;;13.23;6.05;;;;;;;;;;5113267;28;20052;-70
2022/04/11 04:14:28;;;;;;;9.35;5.13;;;;;;;;;;5115375;28;20044;-70
2022/04/11 04:16:54;;;;;;;9.85;5.45;;;;;;;;;;5096767;28;20048;-72
2022/04/11 04:19:20;;;;;;;11.15;5.22;;;;;;;;;;5110735;28;20043;-70
2022/04/11 04:21:46;;;;;;;9.32;5.32;;;;;;;;;;5106019;28;20040;-71
2022/04/11 04:24:12;;;;;;;9.27;5.22;;;;;;;;;;5095522;28;20397;-72
2022/04/11 04:26:38;;;;;;;11.93;5.57;;;;;;;;;;5087359;28;20557;-70
2022/04/11 04:29:04;;;;;;;10.32;5.40;;;;;;;;;;5093903;28;20104;-70
2022/04/11 04:31:30;;;;;;;11.27;5.25;;;;;;;;;;5105503;28;20055;-71
2022/04/11 04:33:56;;;;;;;10.23;5.47;;;;;;;;;;5093982;28;20525;-72
2022/04/11 04:36:22;;;;;;;12.38;5.43;;;;;;;;;;5112766;28;20051;-72
2022/04/11 04:38:48;;;;;;;11.85;5.38;;;;;;;;;;5097787;28;20127;-71
2022/04/11 04:41:14;;;;;;;10.90;5.20;;;;;;;;;;5112577;28;20517;-71
2022/04/11 04:43:40;;;;;;;9.00;5.22;;;;;;;;;;5114341;28;20130;-71
2022/04/11 04:46:06;;;;;;;9.68;5.47;;;;;;;;;;5112186;28;20471;-70
2022/04/11 04:48:32;;;;;;;10.02;5.68;;;;;;;;;;5113385;28;20047;-71
2022/04/11 04:50:58;;;;;;;13.10;5.85;;;;;;;;;;5113957;28;20093;-71
2022/04/11 04:53:24;;;;;;;10.05;5.65;;;;;;;;;;5113895;28;20035;-72
2022/04/11 04:55:50;;;;;;;10.00;5.90;;;;;;;;;;5113963;28;20565;-69
2022/04/11 04:58:16;;;;;;;10.00;5.68;;;;;;;;;;5109703;28;20071;-72
2022/04/11 05:00:42;;;;;;;10.85;5.80;;;;;;;;;;5114159;28;20552;-71
2022/04/11 05:03:08;;;;;;;10.32;5.60;;;;;;;;;;5096341;28;20039;-72
2022/04/11 05:05:35;;;;;;;9.70;5.82;;;;;;;;;;5114419;28;20379;-72
2022/04/11 05:08:01;;;;;;;9.23;5.50;;;;;;;;;;5114113;28;20055;-71
2022/04/11 05:10:27;;;;;;;11.55;5.43;;;;;;;;;;5097234;28;20052;-71
2022/04/11 05:12:53;;;;;;;9.32;5.10;;;;;;;;;;5114291;28;20105;-71
2022/04/11 05:15:19;;;;;;;10.48;5.93;;;;;;;;;;5097671;28;20047;-72
2022/04/11 05:17:45;;;;;;;10.93;5.80;;;;;;;;;;5113772;28;20052;-72
2022/04/11 05:20:11;;;;;;;11.55;5.40;;;;;;;;;;5095655;28;20463;-72
2022/04/11 05:22:37;;;;;;;11.35;5.32;;;;;;;;;;5114278;28;20502;-72
2022/04/11 05:25:04;;;;;;;10.07;4.90;;;;;;;;;;5111368;28;20048;-70
2022/04/11 05:27:30;;;;;;;9.15;5.47;;;;;;;;;;5112855;28;20038;-71
2022/04/11 05:29:56;;;;;;;9.43;5.30;;;;;;;;;;5113618;28;20082;-71
2022/04/11 05:32:22;;;;;;;9.60;5.15;;;;;;;;;;5113211;28;20075;-71
2022/04/11 05:34:48;;;;;;;11.48;5.45;;;;;;;;;;5113002;28;20093;-71
2022/04/11 05:37:14;;;;;;;9.63;4.95;;;;;;;;;;5111167;28;20490;-72
2022/04/11 05:39:40;;;;;;;11.25;5.35;;;;;;;;;;5112423;28;20082;-70
2022/04/11 05:42:06;;;;;;;10.45;5.28;;;;;;;;;;5109739;28;20039;-71
2022/04/11 05:44:33;;;;;;;13.20;5.95;;;;;;;;;;5112113;28;20043;-70
2022/04/11 05:46:59;;;;;;;10.65;5.72;;;;;;;;;;5095235;28;20193;-71
2022/04/11 05:49:25;;;;;;;11.20;5.65;;;;;;;;;;5113498;28;20525;-72
2022/04/11 05:51:51;;;;;;;12.38;5.40;;;;;;;;;;5113964;28;20492;-71
2022/04/11 05:54:17;;;;;;;11.80;5.20;;;;;;;;;;5113380;28;20502;-71
2022/04/11 05:56:43;;;;;;;7.97;4.85;;;;;;;;;;5110968;28;20086;-71
2022/04/11 05:59:09;;;;;;;9.43;5.55;;;;;;;;;;5097351;28;20035;-71
2022/04/11 06:01:35;;;;;;;9.15;5.43;;;;;;;;;;5118538;28;20055;-71
2022/04/11 06:04:02;;;;;;;10.43;5.38;;;;;;;;;;5094476;28;20032;-72
2022/04/11 06:06:28;;;;;;;11.13;5.20;;;;;;;;;;5103363;28;20051;-71
2022/04/11 06:08:54;;;;;;;11.65;5.15;;;;;;;;;;5116882;28;20422;-73
2022/04/11 06:11:20;;;;;;;10.65;5.28;;;;;;;;;;5116774;28;20040;-72
2022/04/11 06:13:46;;;;;;;9.85;5.47;;;;;;;;;;5108399;28;20471;-70
2022/04/11 06:16:15;;;;;;;12.15;5.30;;;;;;;;;;5098599;28;20044;-70
2022/04/11 06:18:41;;;;;;;10.20;4.93;;;;;;;;;;5111155;28;20051;-71
2022/04/11 06:21:07;;;;;;;13.98;5.63;;;;;;;;;;5105085;28;20035;-74
2022/04/11 06:23:33;;;;;;;10.85;5.72;;;;;;;;;;5117084;28;20047;-71
2022/04/11 06:26:00;;;;;;;17.70;9.25;;;;;;;;;;5101215;28;20047;-74
2022/04/11 06:28:26;;;;;;;16.35;8.82;;;;;;;;;;5111497;28;20125;-72
2022/04/11 06:30:53;;;;;;;15.52;10.10;;;;;;;;;;5116656;28;20048;-71
2022/04/11 06:33:19;;;;;;;19.95;12.60;;;;;;;;;;5116846;28;20096;-71
2022/04/11 06:35:45;;;;;;;14.05;9.38;;;;;;;;;;5117234;28;20039;-71
2022/04/11 06:38:11;;;;;;;12.80;6.78;;;;;;;;;;5116961;28;20051;-71
2022/04/11 06:40:37;;;;;;;15.50;6.07;;;;;;;;;;5098529;28;20047;-70
2022/04/11 06:43:03;;;;;;;12.13;6.35;;;;;;;;;;5117139;28;20040;-70
2022/04/11 06:45:29;;;;;;;10.50;5.85;;;;;;;;;;5117088;28;20403;-71
2022/04/11 06:47:55;;;;;;;11.13;5.72;;;;;;;;;;5093513;28;20387;-71
2022/04/11 06:50:21;;;;;;;11.68;5.88;;;;;;;;;;5112911;28;20493;-72
2022/04/11 06:52:47;;;;;;;11.45;5.07;;;;;;;;;;5111431;28;20067;-70
2022/04/11 06:55:13;;;;;;;10.82;5.28;;;;;;;;;;5111935;28;20394;-71
2022/04/11 06:57:39;;;;;;;11.88;5.50;;;;;;;;;;5115739;28;20127;-71
2022/04/11 07:00:06;;;;;;;11.13;5.15;;;;;;;;;;5116780;28;20040;-71
2022/04/11 07:02:32;;;;;;;8.73;4.75;;;;;;;;;;5115722;28;20043;-70
2022/04/11 07:04:58;;;;;;;11.90;5.47;;;;;;;;;;5114574;28;20054;-71
2022/04/11 07:07:24;;;;;;;8.80;5.80;;;;;;;;;;5109161;28;20403;-72
2022/04/11 07:09:50;;;;;;;11.02;5.60;;;;;;;;;;5091259;28;20077;-70
2022/04/11 07:12:16;;;;;;;12.57;5.53;;;;;;;;;;5114009;28;20112;-72
2022/04/11 07:14:42;;;;;;;14.05;5.22;;;;;;;;;;5115045;28;20040;-71
2022/04/11 07:17:08;;;;;;;11.60;5.57;;;;;;;;;;5114265;28;20227;-70
2022/04/11 07:19:34;;;;;;;12.32;5.05;;;;;;;;;;5097538;28;20040;-69
2022/04/11 07:22:00;;;;;;;9.13;5.25;;;;;;;;;;5116127;28;20043;-71
2022/04/11 07:24:26;;;;;;;9.32;5.80;;;;;;;;;;5115773;28;20070;-71
2022/04/11 07:26:52;;;;;;;11.85;5.78;;;;;;;;;;5115931;28;20052;-71
2022/04/11 07:29:18;;;;;;;14.18;5.55;;;;;;;;;;5097381;28;20046;-72
2022/04/11 07:31:44;;;;;;;11.35;5.18;;;;;;;;;;5097945;28;20069;-70
2022/04/11 07:34:10;;;;;;;12.82;5.50;;;;;;;;;;5115205;28;20526;-71
2022/04/11 07:36:36;;;;;;;11.10;6.07;;;;;;;;;;5116041;28;20097;-71
2022/04/11 07:39:02;;;;;;;14.85;5.57;;;;;;;;;;5096773;28;20134;-71
2022/04/11 07:41:28;;;;;;;10.48;6.05;;;;;;;;;;5096991;28;20044;-72
2022/04/11 07:43:56;;;;;;;9.68;5.68;;;;;;;;;;5102358;28;20055;-72
2022/04/11 07:46:25;;;;;;;9.80;6.10;;;;;;;;;;5106900;28;20606;-71
2022/04/11 07:48:51;;;;;;;11.10;5.63;;;;;;;;;;5109135;28;20661;-70
2022/04/11 07:51:17;;;;;;;12.60;5.93;;;;;;;;;;5114300;28;20047;-72
2022/04/11 07:53:43;;;;;;;9.85;5.65;;;;;;;;;;5096592;28;20070;-72
2022/04/11 07:56:09;;;;;;;13.30;5.97;;;;;;;;;;5115288;28;20394;-71
2022/04/11 07:58:36;;;;;;;10.82;5.70;;;;;;;;;;5115321;28;20096;-71
2022/04/11 08:01:02;;;;;;;10.55;5.10;;;;;;;;;;5108182;28;20563;-71
2022/04/11 08:03:28;;;;;;;11.27;5.90;;;;;;;;;;5109749;28;20039;-71
2022/04/11 08:05:54;;;;;;;8.98;5.35;;;;;;;;;;5099172;28;20040;-72
2022/04/11 08:08:20;;;;;;;12.27;5.43;;;;;;;;;;5096174;28;20120;-70
2022/04/11 08:10:46;;;;;;;10.88;5.65;;;;;;;;;;5102723;28;20048;-71
2022/04/11 08:13:12;;;;;;;11.00;5.85;;;;;;;;;;5108548;28;20115;-71
2022/04/11 08:15:38;;;;;;;11.73;5.80;;;;;;;;;;5108700;28;20104;-72
2022/04/11 08:18:04;;;;;;;11.82;6.35;;;;;;;;;;5086483;28;20108;-71
2022/04/11 08:20:30;;;;;;;11.43;6.05;;;;;;;;;;5113363;28;20067;-71
2022/04/11 08:22:56;;;;;;;11.88;6.10;;;;;;;;;;5093760;28;20047;-72
2022/04/11 08:25:22;;;;;;;12.45;5.95;;;;;;;;;;5113562;28;20043;-72
2022/04/11 08:27:48;;;;;;;13.23;6.03;;;;;;;;;;5112692;28;20070;-73
2022/04/11 08:30:14;;;;;;;12.18;5.93;;;;;;;;;;5113596;28;20055;-72
2022/04/11 08:32:42;;;;;;;12.32;6.00;;;;;;;;;;5114033;28;20118;-72
2022/04/11 08:35:08;;;;;;;14.13;5.30;;;;;;;;;;5112264;28;20066;-73
2022/04/11 08:37:37;;;;;;;11.88;5.78;;;;;;;;;;5114173;28;20048;-73
2022/04/11 08:40:04;;;;;;;10.63;5.85;;;;;;;;;;5113490;28;20052;-71
2022/04/11 08:42:31;;;;;;;9.25;5.80;;;;;;;;;;5112796;28;20055;-73
2022/04/11 08:44:58;;;;;;;11.77;5.55;;;;;;;;;;5114001;28;20052;-73
2022/04/11 08:47:24;;;;;;;11.57;5.47;;;;;;;;;;5113927;28;20051;-73
2022/04/11 08:49:53;;;;;;;10.75;5.65;;;;;;;;;;5098181;28;20055;-74
2022/04/11 08:52:19;;;;;;;13.13;5.60;;;;;;;;;;5101380;28;20079;-71
2022/04/11 08:54:46;;;;;;;8.65;5.50;;;;;;;;;;5109902;28;20044;-74
2022/04/11 08:57:12;;;;;;;10.40;5.85;;;;;;;;;;5112769;28;20067;-72
2022/04/11 08:59:38;;;;;;;13.85;5.53;;;;;;;;;;5114888;28;20047;-73
2022/04/11 09:02:10;;;;;;;9.65;6.00;;;;;;;;;;5093996;28;20050;-72
2022/04/11 09:04:49;;;;;;;11.23;5.88;;;;;;;;;;5113105;28;20054;-72
2022/04/11 09:07:15;;;;;;;11.80;6.68;;;;;;;;;;5104804;28;20047;-70
2022/04/11 09:09:41;;;;;;;10.10;5.60;;;;;;;;;;5095238;28;20043;-71
2022/04/11 09:12:14;;;;;;;9.27;5.97;;;;;;;;;;5112333;28;20407;-72
2022/04/11 09:14:40;;;;;;;12.02;5.95;;;;;;;;;;5112041;28;20052;-71
2022/04/11 09:17:09;;;;;;;8.40;5.25;;;;;;;;;;5110675;28;20046;-69
2022/04/11 09:19:35;;;;;;;11.18;5.68;;;;;;;;;;5090022;28;20119;-74
2022/04/11 09:22:02;;;;;;;9.90;5.38;;;;;;;;;;5113673;28;20066;-73
2022/04/11 09:24:30;;;;;;;11.85;5.78;;;;;;;;;;5092099;28;20096;-73
2022/04/11 09:26:57;;;;;;;12.00;5.10;;;;;;;;;;5105045;28;20043;-72
2022/04/11 09:29:23;;;;;;;10.85;4.50;;;;;;;;;;5094718;28;20039;-73
2022/04/11 09:31:50;;;;;;;13.77;4.97;;;;;;;;;;5112676;28;20036;-72
2022/04/11 09:34:19;;;;;;;14.57;5.30;;;;;;;;;;5100988;28;20036;-74
2022/04/11 09:36:55;;;;;;;13.68;5.10;;;;;;;;;;5114212;28;20043;-73
2022/04/11 09:39:22;;;;;;;11.25;4.90;;;;;;;;;;5114027;28;20085;-73
2022/04/11 09:41:49;;;;;;;9.45;4.20;;;;;;;;;;5114383;28;20042;-73
2022/04/11 09:44:25;;;;;;;9.02;4.10;;;;;;;;;;5113795;28;20040;-73
2022/04/11 09:46:52;;;;;;;7.43;4.55;;;;;;;;;;5114639;28;20468;-72
2022/04/11 09:49:19;;;;;;;12.43;4.20;;;;;;;;;;5112594;28;20046;-73
2022/04/11 09:52:04;;;;;;;8.23;3.35;;;;;;;;;;5113562;28;20042;-74
2022/04/11 09:54:31;;;;;;;6.97;2.47;;;;;;;;;;5092918;28;20047;-73
2022/04/11 09:57:00;;;;;;;8.65;2.40;;;;;;;;;;5110948;28;20051;-73
2022/04/11 09:59:27;;;;;;;8.77;3.10;;;;;;;;;;5092825;28;20112;-73
2022/04/11 10:01:54;;;;;;;10.32;3.00;;;;;;;;;;5093917;28;20048;-73
2022/04/11 10:04:21;;;;;;;10.63;3.05;;;;;;;;;;5077076;28;20054;-72
2022/04/11 10:06:47;;;;;;;13.05;3.05;;;;;;;;;;5095538;28;20043;-72
2022/04/11 10:09:13;;;;;;;9.45;2.67;;;;;;;;;;5092856;28;20056;-73
2022/04/11 10:11:43;;;;;;;8.88;3.00;;;;;;;;;;5093649;28;20064;-73
2022/04/11 10:14:12;;;;;;;9.88;2.90;;;;;;;;;;5111689;28;20490;-74
2022/04/11 10:16:42;;;;;;;8.15;3.10;;;;;;;;;;5112806;28;20047;-73
2022/04/11 10:19:08;;;;;;;9.45;2.88;;;;;;;;;;5111135;28;20042;-73
2022/04/11 10:21:35;;;;;;;7.68;3.20;;;;;;;;;;5104101;28;20163;-74
2022/04/11 10:24:06;;;;;;;8.10;3.20;;;;;;;;;;5113149;28;20406;-71
2022/04/11 10:26:46;;;;;;;6.53;2.80;;;;;;;;;;5113681;28;20079;-73
2022/04/11 10:29:31;;;;;;;8.93;2.72;;;;;;;;;;5114009;28;20111;-73
2022/04/11 10:32:20;;;;;;;5.88;2.33;;;;;;;;;;5113688;28;20039;-73
2022/04/11 10:35:05;;;;;;;7.55;2.63;;;;;;;;;;5099651;28;20044;-72
2022/04/11 10:37:40;;;;;;;9.40;2.75;;;;;;;;;;5113574;28;20040;-73
2022/04/11 10:40:19;;;;;;;8.05;2.75;;;;;;;;;;5113461;28;20667;-74
2022/04/11 10:43:01;;;;;;;6.72;3.00;;;;;;;;;;5097910;28;20059;-74
2022/04/11 10:45:37;;;;;;;6.40;2.85;;;;;;;;;;5118095;28;20048;-73
2022/04/11 10:48:04;;;;;;;6.95;2.80;;;;;;;;;;5090946;28;20048;-72
2022/04/11 10:50:41;;;;;;;7.22;2.80;;;;;;;;;;5117451;28;20046;-74
2022/04/11 10:53:10;;;;;;;7.53;2.95;;;;;;;;;;5116436;28;20100;-72
2022/04/11 10:55:36;;;;;;;8.23;2.80;;;;;;;;;;5096510;28;20043;-73
2022/04/11 10:58:03;;;;;;;8.68;3.10;;;;;;;;;;5094897;28;20566;-73
2022/04/11 11:00:34;;;;;;;6.45;2.67;;;;;;;;;;5113265;28;20391;-72
2022/04/11 11:03:02;;;;;;;7.40;2.97;;;;;;;;;;5110728;28;20044;-73
2022/04/11 11:05:38;;;;;;;11.52;3.08;;;;;;;;;;5114285;28;20144;-74
2022/04/11 11:08:10;;;;;;;7.28;2.60;;;;;;;;;;5097568;28;20056;-71
2022/04/11 11:10:51;;;;;;;8.63;3.53;;;;;;;;;;5081875;28;20100;-72
2022/04/11 11:13:27;;;;;;;8.38;2.95;;;;;;;;;;5095771;28;20044;-73
2022/04/11 11:15:54;;;;;;;8.25;2.97;;;;;;;;;;5089148;28;20040;-72
2022/04/11 11:18:20;;;;;;;8.20;2.95;;;;;;;;;;5096557;28;20052;-73
2022/04/11 11:20:56;;;;;;;7.97;3.55;;;;;;;;;;5091316;28;20570;-73
2022/04/11 11:23:25;;;;;;;11.02;4.40;;;;;;;;;;5083199;28;20047;-73
2022/04/11 11:25:52;;;;;;;8.18;3.92;;;;;;;;;;5091313;28;20059;-73
2022/04/11 11:28:18;;;;;;;9.88;4.05;;;;;;;;;;5096254;28;20040;-73
2022/04/11 11:30:45;;;;;;;8.75;4.10;;;;;;;;;;5096811;28;20044;-73
2022/04/11 11:33:15;;;;;;;8.70;4.55;;;;;;;;;;5092450;28;20044;-73
2022/04/11 11:35:51;;;;;;;11.00;4.20;;;;;;;;;;5090393;28;20036;-72
2022/04/11 11:38:21;;;;;;;9.93;4.80;;;;;;;;;;5095094;28;20083;-73
2022/04/11 11:40:55;;;;;;;9.63;4.40;;;;;;;;;;5094808;28;20055;-72
2022/04/11 11:43:21;;;;;;;9.90;4.28;;;;;;;;;;5095682;28;20348;-71
2022/04/11 11:45:48;;;;;;;8.70;4.10;;;;;;;;;;5096370;28;20048;-72
2022/04/11 11:48:22;;;;;;;8.48;4.28;;;;;;;;;;5096704;28;20534;-74
2022/04/11 11:50:48;;;;;;;9.23;5.72;;;;;;;;;;5086684;28;20048;-71
2022/04/11 11:53:14;;;;;;;10.60;6.30;;;;;;;;;;5084547;28;20055;-73
2022/04/11 11:55:53;;;;;;;10.45;6.40;;;;;;;;;;5095761;28;20044;-72
2022/04/11 11:58:19;;;;;;;10.85;5.60;;;;;;;;;;5096213;28;20498;-73
2022/04/11 12:00:48;;;;;;;9.15;5.65;;;;;;;;;;5095779;28;20118;-73
2022/04/11 12:06:03;;;;;;;10.05;6.18;;;;;;;;;;5095436;28;20040;-73
2022/04/11 12:08:32;;;;;;;10.50;6.50;;;;;;;;;;5094916;28;20044;-73
2022/04/11 12:11:02;;;;;;;11.23;6.22;;;;;;;;;;5095784;28;20044;-73
2022/04/11 12:13:35;;;;;;;11.98;6.85;;;;;;;;;;5094429;28;20048;-72
2022/04/11 12:16:08;;;;;;;9.82;6.07;;;;;;;;;;5093683;28;20085;-71
2022/04/11 12:18:47;;;;;;;11.45;6.88;;;;;;;;;;5095059;28;20040;-74
2022/04/11 12:21:13;;;;;;;11.00;6.43;;;;;;;;;;5095690;28;20513;-73
2022/04/11 12:23:48;;;;;;;9.95;6.35;;;;;;;;;;5095868;28;20040;-71
2022/04/11 12:26:27;;;;;;;9.23;6.28;;;;;;;;;;5093775;28;20071;-74
2022/04/11 12:28:54;;;;;;;10.82;6.35;;;;;;;;;;5092880;28;20098;-72
2022/04/11 12:31:21;;;;;;;13.68;6.57;;;;;;;;;;5094576;28;20040;-73
2022/04/11 12:33:49;;;;;;;11.85;7.32;;;;;;;;;;5096418;28;20059;-74
2022/04/11 12:36:16;;;;;;;11.68;7.18;;;;;;;;;;5094673;28;20087;-72
2022/04/11 12:38:44;;;;;;;11.68;7.38;;;;;;;;;;5095534;28;20040;-74
2022/04/11 12:41:29;;;;;;;12.60;7.13;;;;;;;;;;5093455;28;21754;-72
2022/04/11 12:44:09;;;;;;;9.77;7.20;;;;;;;;;;5108914;28;20047;-72
2022/04/11 12:46:41;;;;;;;11.32;7.10;;;;;;;;;;5084640;28;20072;-73
2022/04/11 12:49:08;;;;;;;12.60;7.20;;;;;;;;;;5094551;28;20040;-72
2022/04/11 12:51:37;;;;;;;11.63;7.57;;;;;;;;;;5094558;28;20040;-72
2022/04/11 12:54:10;;;;;;;10.30;6.88;;;;;;;;;;5094600;28;20130;-72
2022/04/11 12:56:38;;;;;;;11.45;6.80;;;;;;;;;;5094723;28;20036;-71
2022/04/11 12:59:04;;;;;;;9.65;6.25;;;;;;;;;;5095736;28;20040;-72
2022/04/11 13:01:50;;;;;;;11.32;7.53;;;;;;;;;;5093221;28;20478;-72
2022/04/11 13:04:16;;;;;;;13.82;7.45;;;;;;;;;;5095035;28;20054;-72
2022/04/11 13:06:42;;;;;;;12.15;7.18;;;;;;;;;;5093879;28;20449;-72
2022/04/11 13:09:08;;;;;;;10.95;7.07;;;;;;;;;;5095389;28;20036;-72
2022/04/11 13:11:44;;;;;;;15.15;7.63;;;;;;;;;;5096749;28;20047;-73
2022/04/11 13:14:10;;;;;;;9.30;7.28;;;;;;;;;;5115347;28;20450;-74
2022/04/11 13:19:20;;;;;;;11.18;7.63;;;;;;;;;;5114737;28;20047;-73
2022/04/11 13:21:47;;;;;;;13.70;7.88;;;;;;;;;;5115953;28;20039;-72
2022/04/11 13:24:13;;;;;;;10.50;6.97;;;;;;;;;;5095999;28;20031;-73
2022/04/11 13:26:39;;;;;;;13.80;8.00;;;;;;;;;;5115344;28;20044;-74
2022/04/11 13:29:05;;;;;;;10.70;8.10;;;;;;;;;;5115106;28;20036;-72
2022/04/11 13:31:31;;;;;;;12.90;8.13;;;;;;;;;;5115200;28;20130;-73
2022/04/11 13:33:57;;;;;;;12.02;7.25;;;;;;;;;;5115244;28;20047;-72
2022/04/11 13:36:23;;;;;;;15.27;7.13;;;;;;;;;;5096741;28;20050;-73
2022/04/11 13:38:49;;;;;;;11.27;7.25;;;;;;;;;;5115248;28;20047;-72
2022/04/11 13:41:15;;;;;;;12.35;7.70;;;;;;;;;;5110931;28;20035;-74
2022/04/11 13:43:41;;;;;;;11.88;7.85;;;;;;;;;;5114519;28;20082;-72
2022/04/11 13:46:07;;;;;;;12.57;8.15;;;;;;;;;;5096440;28;20513;-72
2022/04/11 13:48:33;;;;;;;9.65;7.25;;;;;;;;;;5114728;28;20044;-72
2022/04/11 13:51:00;;;;;;;11.88;7.72;;;;;;;;;;5114525;28;20116;-73
2022/04/11 13:53:29;;;;;;;13.10;7.60;;;;;;;;;;5113577;28;20039;-73
2022/04/11 13:55:55;;;;;;;9.57;7.63;;;;;;;;;;5113822;28;20039;-72
2022/04/11 13:58:21;;;;;;;10.88;8.05;;;;;;;;;;5114864;28;20050;-73
2022/04/11 14:00:47;;;;;;;10.88;7.85;;;;;;;;;;5114850;28;20416;-73
2022/04/11 14:03:13;;;;;;;11.13;7.97;;;;;;;;;;5096481;28;20040;-73
2022/04/11 14:05:40;;;;;;;13.30;8.20;;;;;;;;;;5114866;28;20042;-71
2022/04/11 14:08:06;;;;;;;10.73;7.32;;;;;;;;;;5113805;28;20071;-72
2022/04/11 14:10:32;;;;;;;12.07;8.18;;;;;;;;;;5114264;28;20127;-71
2022/04/11 14:12:58;;;;;;;11.52;8.27;;;;;;;;;;5113252;28;20090;-71
2022/04/11 14:15:24;;;;;;;10.98;7.60;;;;;;;;;;5110368;28;20075;-72
2022/04/11 14:17:50;;;;;;;11.38;8.23;;;;;;;;;;5117673;28;20425;-72
2022/04/11 14:20:16;;;;;;;12.15;7.28;;;;;;;;;;5099717;28;20032;-70
2022/04/11 14:22:42;;;;;;;10.52;6.97;;;;;;;;;;5118020;28;20050;-70
2022/04/11 14:25:09;;;;;;;11.18;7.70;;;;;;;;;;5099239;28;20490;-70
2022/04/11 14:27:35;;;;;;;11.85;8.07;;;;;;;;;;5099581;28;20039;-70
2022/04/11 14:30:01;;;;;;;12.82;7.68;;;;;;;;;;5118135;28;20040;-69
2022/04/11 14:32:27;;;;;;;11.75;7.70;;;;;;;;;;5099113;28;20127;-70
2022/04/11 14:34:53;;;;;;;13.40;8.02;;;;;;;;;;5105976;28;20582;-72
2022/04/11 14:37:19;;;;;;;12.23;7.63;;;;;;;;;;5109073;28;20036;-71
2022/04/11 14:39:45;;;;;;;11.60;8.02;;;;;;;;;;5117615;28;20122;-70
2022/04/11 14:42:14;;;;;;;12.45;8.30;;;;;;;;;;5099275;28;20482;-71